This is the latest recevied weather packets stored in our database for station/object W8KJR. If no packets are shown the sender has not sent any weather packets the latest 1 day(s).
| Time | Temp. | Humidity | Pressure | Rain* | Wind** | Luminosity | Snow |
|---|---|---|---|---|---|---|---|
| 1777982003 | 15° C | 80% | 1005.2 hPa | 0 mm | 0.45 m/s, 284° | - | - |
| 1777981098 | 14.44° C | 79% | 1004.9 hPa | 0 mm | 0 m/s | - | - |
| 1777980194 | 14.44° C | 79% | 1004.3 hPa | 0 mm | 0 m/s | - | - |
| 1777979293 | 14.44° C | 77% | 1003.8 hPa | 0 mm | 0 m/s | - | - |
| 1777978389 | 15° C | 77% | 1003.4 hPa | 0 mm | 0 m/s | - | - |
| 1777977484 | 15° C | 77% | 1003.4 hPa | 0 mm | 0 m/s | - | - |
| 1777976583 | 15° C | 78% | 1003 hPa | 0 mm | 0.45 m/s, 323° | - | - |
| 1777975680 | 15° C | 77% | 1002.7 hPa | 0 mm | 0 m/s | - | - |
| 1777974777 | 15° C | 79% | 1002.9 hPa | 0 mm | 0.45 m/s, 300° | - | - |
| 1777973876 | 15° C | 80% | 1003 hPa | 0 mm | 0 m/s | - | - |
| 1777972975 | 14.44° C | 84% | 1003.1 hPa | 0 mm | 0 m/s | - | - |
| 1777972074 | 14.44° C | 84% | 1003.4 hPa | 0 mm | 0 m/s | - | - |
| 1777971172 | 14.44° C | 84% | 1003.1 hPa | 0 mm | 0.45 m/s, 315° | - | - |
| 1777970271 | 15° C | 83% | 1002.9 hPa | 0 mm | 0 m/s | - | - |
| 1777969367 | 16.11° C | 76% | 1003 hPa | 0 mm | 0.45 m/s, 103° | - | - |
| 1777968463 | 16.67° C | 71% | 1002.9 hPa | 0 mm | 0.89 m/s, 249° | - | - |
| 1777967563 | 17.22° C | 69% | 1002.9 hPa | 0 mm | 0 m/s | - | - |
| 1777966661 | 17.22° C | 70% | 1002.9 hPa | 0 mm | 0.45 m/s, 276° | - | - |
| 1777965757 | 16.67° C | 72% | 1002.9 hPa | 0 mm | 0 m/s | - | - |
| 1777964854 | 17.22° C | 70% | 1002.6 hPa | 0 mm | 0 m/s | - | - |
| 1777963948 | 17.78° C | 69% | 1003 hPa | 0 mm | 0.45 m/s, 307° | - | - |
| 1777963046 | 18.33° C | 66% | 1002.7 hPa | 0 mm | 0 m/s | - | - |
| 1777962142 | 18.89° C | 63% | 1002.6 hPa | 0 mm | 0.45 m/s, 242° | - | - |
| 1777961240 | 19.44° C | 62% | 1002.4 hPa | 0 mm | 0 m/s | - | - |
| 1777960340 | 19.44° C | 62% | 1002.1 hPa | 0 mm | 0 m/s | - | - |
* Rain latest hour (hover to see other rain measurements)
** Current wind speed in m/s (hover to see current wind gust speed)